sensor_id;sensor_type;location;lat;lon;timestamp;P1;durP1;ratioP1;P2;durP2;ratioP2
1593;SDS011;790;47.000;16.084;2023-01-28T00:00:51;30.57;;;17.83;;
1593;SDS011;790;47.000;16.084;2023-01-28T00:03:19;27.67;;;17.70;;
1593;SDS011;790;47.000;16.084;2023-01-28T00:05:46;30.43;;;18.07;;
1593;SDS011;790;47.000;16.084;2023-01-28T00:08:13;25.40;;;16.43;;
1593;SDS011;790;47.000;16.084;2023-01-28T00:10:40;26.90;;;16.73;;
1593;SDS011;790;47.000;16.084;2023-01-28T00:13:08;23.80;;;15.47;;
1593;SDS011;790;47.000;16.084;2023-01-28T00:15:40;27.27;;;15.43;;
1593;SDS011;790;47.000;16.084;2023-01-28T00:18:07;27.77;;;17.00;;
1593;SDS011;790;47.000;16.084;2023-01-28T00:20:34;30.30;;;17.50;;
1593;SDS011;790;47.000;16.084;2023-01-28T00:23:01;26.23;;;15.83;;
1593;SDS011;790;47.000;16.084;2023-01-28T00:25:29;28.33;;;17.17;;
1593;SDS011;790;47.000;16.084;2023-01-28T00:27:56;28.43;;;17.73;;
1593;SDS011;790;47.000;16.084;2023-01-28T00:30:23;28.13;;;17.40;;
1593;SDS011;790;47.000;16.084;2023-01-28T00:32:56;26.70;;;16.97;;
1593;SDS011;790;47.000;16.084;2023-01-28T00:35:23;28.00;;;16.57;;
1593;SDS011;790;47.000;16.084;2023-01-28T00:37:51;27.80;;;17.30;;
1593;SDS011;790;47.000;16.084;2023-01-28T00:40:18;23.93;;;16.20;;
1593;SDS011;790;47.000;16.084;2023-01-28T00:42:45;28.07;;;17.23;;
1593;SDS011;790;47.000;16.084;2023-01-28T00:45:12;26.33;;;16.57;;
1593;SDS011;790;47.000;16.084;2023-01-28T00:47:39;26.00;;;17.00;;
1593;SDS011;790;47.000;16.084;2023-01-28T00:50:08;26.17;;;16.70;;
1593;SDS011;790;47.000;16.084;2023-01-28T00:52:36;24.23;;;15.80;;
1593;SDS011;790;47.000;16.084;2023-01-28T00:55:03;24.43;;;15.97;;
1593;SDS011;790;47.000;16.084;2023-01-28T00:57:31;28.23;;;17.40;;
1593;SDS011;790;47.000;16.084;2023-01-28T00:59:58;25.40;;;15.93;;
1593;SDS011;790;47.000;16.084;2023-01-28T01:02:25;26.30;;;16.47;;
1593;SDS011;790;47.000;16.084;2023-01-28T01:04:52;26.50;;;16.57;;
1593;SDS011;790;47.000;16.084;2023-01-28T01:07:27;27.27;;;17.67;;
1593;SDS011;790;47.000;16.084;2023-01-28T01:09:59;27.40;;;16.77;;
1593;SDS011;790;47.000;16.084;2023-01-28T01:12:27;27.60;;;16.73;;
1593;SDS011;790;47.000;16.084;2023-01-28T01:14:54;24.87;;;16.07;;
1593;SDS011;790;47.000;16.084;2023-01-28T01:17:21;27.80;;;17.23;;
1593;SDS011;790;47.000;16.084;2023-01-28T01:19:48;27.07;;;16.53;;
1593;SDS011;790;47.000;16.084;2023-01-28T01:22:15;25.70;;;16.90;;
1593;SDS011;790;47.000;16.084;2023-01-28T01:24:45;28.57;;;16.10;;
1593;SDS011;790;47.000;16.084;2023-01-28T01:27:13;26.07;;;16.83;;
1593;SDS011;790;47.000;16.084;2023-01-28T01:29:40;24.23;;;14.97;;
1593;SDS011;790;47.000;16.084;2023-01-28T01:32:07;28.27;;;17.27;;
1593;SDS011;790;47.000;16.084;2023-01-28T01:34:34;28.10;;;17.20;;
1593;SDS011;790;47.000;16.084;2023-01-28T01:37:01;28.03;;;16.70;;
1593;SDS011;790;47.000;16.084;2023-01-28T01:39:30;26.90;;;16.83;;
1593;SDS011;790;47.000;16.084;2023-01-28T01:41:59;27.17;;;17.00;;
1593;SDS011;790;47.000;16.084;2023-01-28T01:47:19;27.50;;;17.00;;
1593;SDS011;790;47.000;16.084;2023-01-28T01:49:49;26.17;;;16.40;;
1593;SDS011;790;47.000;16.084;2023-01-28T01:52:17;33.07;;;17.40;;
1593;SDS011;790;47.000;16.084;2023-01-28T01:54:49;27.83;;;16.97;;
1593;SDS011;790;47.000;16.084;2023-01-28T01:57:21;23.90;;;15.53;;
1593;SDS011;790;47.000;16.084;2023-01-28T01:59:52;26.97;;;16.80;;
1593;SDS011;790;47.000;16.084;2023-01-28T02:02:20;26.03;;;16.17;;
1593;SDS011;790;47.000;16.084;2023-01-28T02:04:48;27.47;;;17.67;;
1593;SDS011;790;47.000;16.084;2023-01-28T02:07:15;28.33;;;16.87;;
1593;SDS011;790;47.000;16.084;2023-01-28T02:09:44;26.40;;;15.70;;
1593;SDS011;790;47.000;16.084;2023-01-28T02:12:13;25.97;;;17.43;;
1593;SDS011;790;47.000;16.084;2023-01-28T02:14:46;25.83;;;16.00;;
1593;SDS011;790;47.000;16.084;2023-01-28T02:17:17;26.93;;;17.13;;
1593;SDS011;790;47.000;16.084;2023-01-28T02:19:45;25.47;;;16.40;;
1593;SDS011;790;47.000;16.084;2023-01-28T02:22:23;27.90;;;17.47;;
1593;SDS011;790;47.000;16.084;2023-01-28T02:28:25;26.53;;;15.77;;
1593;SDS011;790;47.000;16.084;2023-01-28T02:31:02;25.93;;;16.23;;
1593;SDS011;790;47.000;16.084;2023-01-28T02:33:34;25.83;;;16.03;;
1593;SDS011;790;47.000;16.084;2023-01-28T02:36:09;27.13;;;16.97;;
1593;SDS011;790;47.000;16.084;2023-01-28T02:38:44;27.83;;;17.13;;
1593;SDS011;790;47.000;16.084;2023-01-28T02:41:16;30.90;;;19.47;;
1593;SDS011;790;47.000;16.084;2023-01-28T02:43:49;23.53;;;16.53;;
1593;SDS011;790;47.000;16.084;2023-01-28T02:46:18;27.27;;;17.60;;
1593;SDS011;790;47.000;16.084;2023-01-28T02:49:07;26.77;;;16.90;;
1593;SDS011;790;47.000;16.084;2023-01-28T02:51:41;30.07;;;17.13;;
1593;SDS011;790;47.000;16.084;2023-01-28T02:54:17;26.63;;;15.83;;
1593;SDS011;790;47.000;16.084;2023-01-28T02:56:51;33.20;;;18.93;;
1593;SDS011;790;47.000;16.084;2023-01-28T02:59:27;27.20;;;17.50;;
1593;SDS011;790;47.000;16.084;2023-01-28T03:02:03;26.67;;;16.97;;
1593;SDS011;790;47.000;16.084;2023-01-28T03:04:37;29.23;;;17.37;;
1593;SDS011;790;47.000;16.084;2023-01-28T03:07:09;29.67;;;18.13;;
1593;SDS011;790;47.000;16.084;2023-01-28T03:09:39;26.80;;;17.43;;
1593;SDS011;790;47.000;16.084;2023-01-28T03:12:09;27.90;;;17.50;;
1593;SDS011;790;47.000;16.084;2023-01-28T03:15:02;26.07;;;16.70;;
1593;SDS011;790;47.000;16.084;2023-01-28T03:17:51;28.07;;;18.07;;
1593;SDS011;790;47.000;16.084;2023-01-28T03:20:42;25.83;;;16.23;;
1593;SDS011;790;47.000;16.084;2023-01-28T03:23:32;27.30;;;16.40;;
1593;SDS011;790;47.000;16.084;2023-01-28T03:26:22;28.63;;;17.40;;
1593;SDS011;790;47.000;16.084;2023-01-28T03:29:11;27.30;;;17.23;;
1593;SDS011;790;47.000;16.084;2023-01-28T03:31:59;28.97;;;17.13;;
1593;SDS011;790;47.000;16.084;2023-01-28T03:34:45;28.90;;;16.77;;
1593;SDS011;790;47.000;16.084;2023-01-28T03:37:30;27.77;;;17.83;;
1593;SDS011;790;47.000;16.084;2023-01-28T03:40:03;28.33;;;16.93;;
1593;SDS011;790;47.000;16.084;2023-01-28T03:42:31;29.20;;;18.10;;
1593;SDS011;790;47.000;16.084;2023-01-28T03:44:59;27.50;;;17.13;;
1593;SDS011;790;47.000;16.084;2023-01-28T03:47:30;31.17;;;18.03;;
1593;SDS011;790;47.000;16.084;2023-01-28T03:49:58;27.50;;;17.47;;
1593;SDS011;790;47.000;16.084;2023-01-28T03:52:26;25.60;;;16.80;;
1593;SDS011;790;47.000;16.084;2023-01-28T03:54:56;27.67;;;18.10;;
1593;SDS011;790;47.000;16.084;2023-01-28T03:57:24;27.13;;;17.00;;
1593;SDS011;790;47.000;16.084;2023-01-28T03:59:55;26.13;;;17.03;;
1593;SDS011;790;47.000;16.084;2023-01-28T04:02:22;27.33;;;17.53;;
1593;SDS011;790;47.000;16.084;2023-01-28T04:04:52;25.90;;;16.53;;
1593;SDS011;790;47.000;16.084;2023-01-28T04:07:20;23.07;;;16.27;;
1593;SDS011;790;47.000;16.084;2023-01-28T04:09:47;26.97;;;17.27;;
1593;SDS011;790;47.000;16.084;2023-01-28T04:12:14;24.57;;;16.77;;
1593;SDS011;790;47.000;16.084;2023-01-28T04:14:41;27.87;;;17.77;;
1593;SDS011;790;47.000;16.084;2023-01-28T04:17:08;27.03;;;16.87;;
1593;SDS011;790;47.000;16.084;2023-01-28T04:19:35;24.53;;;15.50;;
1593;SDS011;790;47.000;16.084;2023-01-28T04:22:05;25.40;;;16.40;;
1593;SDS011;790;47.000;16.084;2023-01-28T04:24:33;26.93;;;16.33;;
1593;SDS011;790;47.000;16.084;2023-01-28T04:27:01;27.53;;;16.10;;
1593;SDS011;790;47.000;16.084;2023-01-28T04:29:28;23.93;;;15.60;;
1593;SDS011;790;47.000;16.084;2023-01-28T04:31:55;23.33;;;15.23;;
1593;SDS011;790;47.000;16.084;2023-01-28T04:34:22;24.27;;;16.17;;
1593;SDS011;790;47.000;16.084;2023-01-28T04:36:49;24.70;;;16.40;;
1593;SDS011;790;47.000;16.084;2023-01-28T04:39:18;23.80;;;15.10;;
1593;SDS011;790;47.000;16.084;2023-01-28T04:41:45;23.23;;;15.07;;
1593;SDS011;790;47.000;16.084;2023-01-28T04:44:12;22.60;;;15.20;;
1593;SDS011;790;47.000;16.084;2023-01-28T04:46:40;20.07;;;14.43;;
1593;SDS011;790;47.000;16.084;2023-01-28T04:49:08;21.60;;;14.47;;
1593;SDS011;790;47.000;16.084;2023-01-28T04:51:35;21.57;;;14.57;;
1593;SDS011;790;47.000;16.084;2023-01-28T04:54:02;19.87;;;13.27;;
1593;SDS011;790;47.000;16.084;2023-01-28T04:56:30;22.13;;;14.73;;
1593;SDS011;790;47.000;16.084;2023-01-28T04:58:57;20.63;;;13.73;;
1593;SDS011;790;47.000;16.084;2023-01-28T05:01:24;19.67;;;13.40;;
1593;SDS011;790;47.000;16.084;2023-01-28T05:03:51;18.40;;;12.83;;
1593;SDS011;790;47.000;16.084;2023-01-28T05:06:18;19.90;;;12.77;;
1593;SDS011;790;47.000;16.084;2023-01-28T05:08:45;18.40;;;13.50;;
1593;SDS011;790;47.000;16.084;2023-01-28T05:11:13;20.93;;;13.87;;
1593;SDS011;790;47.000;16.084;2023-01-28T05:13:42;18.93;;;13.23;;
1593;SDS011;790;47.000;16.084;2023-01-28T05:16:09;23.63;;;14.07;;
1593;SDS011;790;47.000;16.084;2023-01-28T05:18:36;18.20;;;12.60;;
1593;SDS011;790;47.000;16.084;2023-01-28T05:21:03;18.03;;;12.10;;
1593;SDS011;790;47.000;16.084;2023-01-28T05:23:30;19.07;;;12.83;;
1593;SDS011;790;47.000;16.084;2023-01-28T05:25:57;18.40;;;11.80;;
1593;SDS011;790;47.000;16.084;2023-01-28T05:28:24;14.87;;;11.27;;
1593;SDS011;790;47.000;16.084;2023-01-28T05:30:53;19.10;;;12.57;;
1593;SDS011;790;47.000;16.084;2023-01-28T05:33:20;20.90;;;12.10;;
1593;SDS011;790;47.000;16.084;2023-01-28T05:35:47;21.43;;;13.67;;
1593;SDS011;790;47.000;16.084;2023-01-28T05:38:14;17.97;;;12.53;;
1593;SDS011;790;47.000;16.084;2023-01-28T05:40:41;19.13;;;12.37;;
1593;SDS011;790;47.000;16.084;2023-01-28T05:43:08;16.30;;;11.07;;
1593;SDS011;790;47.000;16.084;2023-01-28T05:45:35;19.27;;;13.20;;
1593;SDS011;790;47.000;16.084;2023-01-28T05:48:04;19.57;;;12.87;;
1593;SDS011;790;47.000;16.084;2023-01-28T05:50:32;21.47;;;13.73;;
1593;SDS011;790;47.000;16.084;2023-01-28T05:52:59;21.00;;;13.63;;
1593;SDS011;790;47.000;16.084;2023-01-28T05:55:26;20.00;;;12.97;;
1593;SDS011;790;47.000;16.084;2023-01-28T05:57:53;17.63;;;11.30;;
1593;SDS011;790;47.000;16.084;2023-01-28T06:00:20;19.40;;;13.33;;
1593;SDS011;790;47.000;16.084;2023-01-28T06:02:49;21.93;;;13.10;;
1593;SDS011;790;47.000;16.084;2023-01-28T06:05:18;20.57;;;13.03;;
1593;SDS011;790;47.000;16.084;2023-01-28T06:07:46;20.30;;;12.67;;
1593;SDS011;790;47.000;16.084;2023-01-28T06:10:14;19.30;;;13.20;;
1593;SDS011;790;47.000;16.084;2023-01-28T06:12:41;20.47;;;13.90;;
1593;SDS011;790;47.000;16.084;2023-01-28T06:15:09;20.53;;;12.93;;
1593;SDS011;790;47.000;16.084;2023-01-28T06:17:37;22.20;;;12.87;;
1593;SDS011;790;47.000;16.084;2023-01-28T06:20:04;21.37;;;14.50;;
1593;SDS011;790;47.000;16.084;2023-01-28T06:22:34;20.97;;;12.77;;
1593;SDS011;790;47.000;16.084;2023-01-28T06:25:01;16.67;;;11.37;;
1593;SDS011;790;47.000;16.084;2023-01-28T06:27:29;20.73;;;13.50;;
1593;SDS011;790;47.000;16.084;2023-01-28T06:29:56;20.63;;;13.50;;
1593;SDS011;790;47.000;16.084;2023-01-28T06:32:23;20.43;;;14.00;;
1593;SDS011;790;47.000;16.084;2023-01-28T06:34:51;20.27;;;12.90;;
1593;SDS011;790;47.000;16.084;2023-01-28T06:37:18;19.50;;;13.43;;
1593;SDS011;790;47.000;16.084;2023-01-28T06:39:46;17.10;;;12.43;;
1593;SDS011;790;47.000;16.084;2023-01-28T06:42:15;19.57;;;12.97;;
1593;SDS011;790;47.000;16.084;2023-01-28T06:44:42;19.50;;;12.93;;
1593;SDS011;790;47.000;16.084;2023-01-28T06:47:09;21.27;;;13.07;;
1593;SDS011;790;47.000;16.084;2023-01-28T06:49:36;19.53;;;13.23;;
1593;SDS011;790;47.000;16.084;2023-01-28T06:52:03;20.70;;;12.87;;
1593;SDS011;790;47.000;16.084;2023-01-28T06:54:30;18.73;;;12.90;;
1593;SDS011;790;47.000;16.084;2023-01-28T06:57:03;18.63;;;12.33;;
1593;SDS011;790;47.000;16.084;2023-01-28T06:59:32;17.50;;;11.43;;
1593;SDS011;790;47.000;16.084;2023-01-28T07:02:00;18.77;;;12.47;;
1593;SDS011;790;47.000;16.084;2023-01-28T07:04:27;19.43;;;12.37;;
1593;SDS011;790;47.000;16.084;2023-01-28T07:06:54;16.37;;;11.83;;
1593;SDS011;790;47.000;16.084;2023-01-28T07:09:21;19.23;;;12.67;;
1593;SDS011;790;47.000;16.084;2023-01-28T07:11:48;19.30;;;12.93;;
1593;SDS011;790;47.000;16.084;2023-01-28T07:14:17;17.17;;;11.53;;
1593;SDS011;790;47.000;16.084;2023-01-28T07:16:44;18.63;;;12.40;;
1593;SDS011;790;47.000;16.084;2023-01-28T07:19:11;18.27;;;12.23;;
1593;SDS011;790;47.000;16.084;2023-01-28T07:21:38;17.70;;;11.40;;
1593;SDS011;790;47.000;16.084;2023-01-28T07:24:06;18.13;;;11.93;;
1593;SDS011;790;47.000;16.084;2023-01-28T07:26:33;21.43;;;13.93;;
1593;SDS011;790;47.000;16.084;2023-01-28T07:29:00;16.93;;;12.23;;
1593;SDS011;790;47.000;16.084;2023-01-28T07:31:29;20.17;;;12.50;;
1593;SDS011;790;47.000;16.084;2023-01-28T07:33:56;20.43;;;11.47;;
1593;SDS011;790;47.000;16.084;2023-01-28T07:36:23;19.87;;;12.70;;
1593;SDS011;790;47.000;16.084;2023-01-28T07:38:50;18.73;;;12.50;;
1593;SDS011;790;47.000;16.084;2023-01-28T07:41:17;20.73;;;13.27;;
1593;SDS011;790;47.000;16.084;2023-01-28T07:43:44;21.33;;;13.87;;
1593;SDS011;790;47.000;16.084;2023-01-28T07:46:12;22.03;;;14.50;;
1593;SDS011;790;47.000;16.084;2023-01-28T07:48:40;25.93;;;15.77;;
1593;SDS011;790;47.000;16.084;2023-01-28T07:51:07;21.10;;;13.83;;
1593;SDS011;790;47.000;16.084;2023-01-28T07:53:35;26.53;;;15.70;;
1593;SDS011;790;47.000;16.084;2023-01-28T07:56:02;22.23;;;14.90;;
1593;SDS011;790;47.000;16.084;2023-01-28T07:58:31;24.77;;;15.67;;
1593;SDS011;790;47.000;16.084;2023-01-28T08:00:59;21.23;;;14.37;;
1593;SDS011;790;47.000;16.084;2023-01-28T08:03:26;19.43;;;13.30;;
1593;SDS011;790;47.000;16.084;2023-01-28T08:05:55;22.77;;;14.27;;
1593;SDS011;790;47.000;16.084;2023-01-28T08:08:23;25.80;;;14.43;;
1593;SDS011;790;47.000;16.084;2023-01-28T08:10:52;21.23;;;13.73;;
1593;SDS011;790;47.000;16.084;2023-01-28T08:13:19;22.13;;;13.77;;
1593;SDS011;790;47.000;16.084;2023-01-28T08:15:46;22.30;;;14.00;;
1593;SDS011;790;47.000;16.084;2023-01-28T08:18:14;19.17;;;13.60;;
1593;SDS011;790;47.000;16.084;2023-01-28T08:20:42;20.20;;;14.27;;
1593;SDS011;790;47.000;16.084;2023-01-28T08:23:13;21.63;;;14.27;;
1593;SDS011;790;47.000;16.084;2023-01-28T08:25:42;21.47;;;14.60;;
1593;SDS011;790;47.000;16.084;2023-01-28T08:28:09;20.70;;;13.83;;
1593;SDS011;790;47.000;16.084;2023-01-28T08:30:37;20.03;;;14.20;;
1593;SDS011;790;47.000;16.084;2023-01-28T08:33:05;23.77;;;15.23;;
1593;SDS011;790;47.000;16.084;2023-01-28T08:35:33;22.17;;;13.80;;
1593;SDS011;790;47.000;16.084;2023-01-28T08:38:01;19.83;;;13.80;;
1593;SDS011;790;47.000;16.084;2023-01-28T08:40:34;19.53;;;13.37;;
1593;SDS011;790;47.000;16.084;2023-01-28T08:43:02;18.87;;;12.50;;
1593;SDS011;790;47.000;16.084;2023-01-28T08:45:30;18.00;;;12.47;;
1593;SDS011;790;47.000;16.084;2023-01-28T08:47:57;20.43;;;12.93;;
1593;SDS011;790;47.000;16.084;2023-01-28T08:50:28;19.17;;;12.63;;
1593;SDS011;790;47.000;16.084;2023-01-28T08:52:58;19.63;;;14.30;;
1593;SDS011;790;47.000;16.084;2023-01-28T08:55:26;19.70;;;13.97;;
1593;SDS011;790;47.000;16.084;2023-01-28T08:57:55;20.83;;;14.93;;
1593;SDS011;790;47.000;16.084;2023-01-28T09:00:23;19.73;;;14.17;;
1593;SDS011;790;47.000;16.084;2023-01-28T09:02:50;21.63;;;14.53;;
1593;SDS011;790;47.000;16.084;2023-01-28T09:05:19;20.67;;;15.93;;
1593;SDS011;790;47.000;16.084;2023-01-28T09:07:46;20.70;;;14.70;;
1593;SDS011;790;47.000;16.084;2023-01-28T09:10:14;17.47;;;12.53;;
1593;SDS011;790;47.000;16.084;2023-01-28T09:12:42;17.53;;;12.57;;
1593;SDS011;790;47.000;16.084;2023-01-28T09:15:11;19.10;;;13.40;;
1593;SDS011;790;47.000;16.084;2023-01-28T09:17:39;17.87;;;13.10;;
1593;SDS011;790;47.000;16.084;2023-01-28T09:20:07;26.57;;;17.77;;
1593;SDS011;790;47.000;16.084;2023-01-28T09:22:36;19.80;;;14.30;;
1593;SDS011;790;47.000;16.084;2023-01-28T09:25:05;19.60;;;13.40;;
1593;SDS011;790;47.000;16.084;2023-01-28T09:27:33;18.40;;;12.60;;
1593;SDS011;790;47.000;16.084;2023-01-28T09:30:00;19.67;;;13.67;;
1593;SDS011;790;47.000;16.084;2023-01-28T09:32:29;20.57;;;14.37;;
1593;SDS011;790;47.000;16.084;2023-01-28T09:34:56;21.63;;;13.33;;
1593;SDS011;790;47.000;16.084;2023-01-28T09:37:23;21.20;;;13.73;;
1593;SDS011;790;47.000;16.084;2023-01-28T09:39:50;18.70;;;13.30;;
1593;SDS011;790;47.000;16.084;2023-01-28T09:42:30;20.30;;;13.83;;
1593;SDS011;790;47.000;16.084;2023-01-28T09:45:10;19.03;;;13.43;;
1593;SDS011;790;47.000;16.084;2023-01-28T09:47:46;20.30;;;13.53;;
1593;SDS011;790;47.000;16.084;2023-01-28T09:50:19;18.50;;;11.80;;
1593;SDS011;790;47.000;16.084;2023-01-28T09:52:51;25.50;;;18.07;;
1593;SDS011;790;47.000;16.084;2023-01-28T09:55:24;19.83;;;14.30;;
1593;SDS011;790;47.000;16.084;2023-01-28T09:57:57;17.90;;;12.00;;
1593;SDS011;790;47.000;16.084;2023-01-28T10:00:26;20.60;;;14.20;;
1593;SDS011;790;47.000;16.084;2023-01-28T10:05:56;19.30;;;13.20;;
1593;SDS011;790;47.000;16.084;2023-01-28T10:08:36;20.50;;;13.73;;
1593;SDS011;790;47.000;16.084;2023-01-28T10:11:22;20.80;;;14.53;;
1593;SDS011;790;47.000;16.084;2023-01-28T10:13:56;18.70;;;12.93;;
1593;SDS011;790;47.000;16.084;2023-01-28T10:16:30;19.57;;;13.13;;
1593;SDS011;790;47.000;16.084;2023-01-28T10:19:09;25.13;;;18.77;;
1593;SDS011;790;47.000;16.084;2023-01-28T10:21:42;20.47;;;12.53;;
1593;SDS011;790;47.000;16.084;2023-01-28T10:24:14;18.00;;;12.00;;
1593;SDS011;790;47.000;16.084;2023-01-28T10:26:44;18.67;;;12.43;;
1593;SDS011;790;47.000;16.084;2023-01-28T10:29:12;18.43;;;13.03;;
1593;SDS011;790;47.000;16.084;2023-01-28T10:31:44;18.67;;;12.30;;
1593;SDS011;790;47.000;16.084;2023-01-28T10:34:18;20.37;;;13.77;;
1593;SDS011;790;47.000;16.084;2023-01-28T10:36:46;18.07;;;12.20;;
1593;SDS011;790;47.000;16.084;2023-01-28T10:39:14;17.20;;;11.37;;
1593;SDS011;790;47.000;16.084;2023-01-28T10:41:43;21.53;;;13.43;;
1593;SDS011;790;47.000;16.084;2023-01-28T10:44:12;22.60;;;15.40;;
1593;SDS011;790;47.000;16.084;2023-01-28T10:46:43;24.07;;;16.43;;
1593;SDS011;790;47.000;16.084;2023-01-28T10:49:13;21.93;;;15.47;;
1593;SDS011;790;47.000;16.084;2023-01-28T10:51:45;21.07;;;15.17;;
1593;SDS011;790;47.000;16.084;2023-01-28T10:54:19;18.77;;;13.53;;
1593;SDS011;790;47.000;16.084;2023-01-28T10:56:48;20.63;;;13.33;;
1593;SDS011;790;47.000;16.084;2023-01-28T10:59:19;21.57;;;16.13;;
1593;SDS011;790;47.000;16.084;2023-01-28T11:01:51;21.20;;;13.90;;
1593;SDS011;790;47.000;16.084;2023-01-28T11:04:21;22.53;;;14.70;;
1593;SDS011;790;47.000;16.084;2023-01-28T11:09:44;20.67;;;14.63;;
1593;SDS011;790;47.000;16.084;2023-01-28T11:12:18;22.37;;;14.90;;
1593;SDS011;790;47.000;16.084;2023-01-28T11:14:48;22.77;;;14.53;;
1593;SDS011;790;47.000;16.084;2023-01-28T11:17:16;23.43;;;15.10;;
1593;SDS011;790;47.000;16.084;2023-01-28T11:19:45;23.20;;;15.87;;
1593;SDS011;790;47.000;16.084;2023-01-28T11:22:16;22.37;;;15.40;;
1593;SDS011;790;47.000;16.084;2023-01-28T11:24:50;22.30;;;16.50;;
1593;SDS011;790;47.000;16.084;2023-01-28T11:27:17;26.93;;;15.90;;
1593;SDS011;790;47.000;16.084;2023-01-28T11:29:51;24.27;;;15.83;;
1593;SDS011;790;47.000;16.084;2023-01-28T11:32:23;23.40;;;15.57;;
1593;SDS011;790;47.000;16.084;2023-01-28T11:34:52;23.70;;;16.80;;
1593;SDS011;790;47.000;16.084;2023-01-28T11:37:23;20.77;;;14.57;;
1593;SDS011;790;47.000;16.084;2023-01-28T11:40:02;20.77;;;14.17;;
1593;SDS011;790;47.000;16.084;2023-01-28T11:42:41;20.37;;;14.17;;
1593;SDS011;790;47.000;16.084;2023-01-28T11:45:09;23.77;;;15.17;;
1593;SDS011;790;47.000;16.084;2023-01-28T11:47:48;21.87;;;14.93;;
1593;SDS011;790;47.000;16.084;2023-01-28T11:50:38;22.07;;;15.17;;
1593;SDS011;790;47.000;16.084;2023-01-28T11:53:32;20.67;;;14.80;;
1593;SDS011;790;47.000;16.084;2023-01-28T11:56:14;20.50;;;13.27;;
1593;SDS011;790;47.000;16.084;2023-01-28T11:58:54;23.53;;;15.83;;
1593;SDS011;790;47.000;16.084;2023-01-28T12:01:33;23.47;;;15.00;;
1593;SDS011;790;47.000;16.084;2023-01-28T12:04:13;25.03;;;15.70;;
1593;SDS011;790;47.000;16.084;2023-01-28T12:07:01;22.43;;;15.20;;
1593;SDS011;790;47.000;16.084;2023-01-28T12:09:42;22.33;;;16.10;;
1593;SDS011;790;47.000;16.084;2023-01-28T12:12:26;26.00;;;16.93;;
1593;SDS011;790;47.000;16.084;2023-01-28T12:15:16;25.30;;;17.53;;
1593;SDS011;790;47.000;16.084;2023-01-28T12:18:01;25.97;;;16.20;;
1593;SDS011;790;47.000;16.084;2023-01-28T12:20:39;25.90;;;17.00;;
1593;SDS011;790;47.000;16.084;2023-01-28T12:26:14;23.53;;;15.63;;
1593;SDS011;790;47.000;16.084;2023-01-28T12:28:48;26.03;;;17.37;;
1593;SDS011;790;47.000;16.084;2023-01-28T12:31:36;23.90;;;16.13;;
1593;SDS011;790;47.000;16.084;2023-01-28T12:34:22;24.97;;;16.57;;
1593;SDS011;790;47.000;16.084;2023-01-28T12:37:07;26.17;;;18.53;;
1593;SDS011;790;47.000;16.084;2023-01-28T12:39:43;26.10;;;17.10;;
1593;SDS011;790;47.000;16.084;2023-01-28T12:42:25;24.30;;;16.83;;
1593;SDS011;790;47.000;16.084;2023-01-28T12:45:00;24.83;;;16.33;;
1593;SDS011;790;47.000;16.084;2023-01-28T12:47:38;25.83;;;16.57;;
1593;SDS011;790;47.000;16.084;2023-01-28T12:50:10;25.63;;;16.77;;
1593;SDS011;790;47.000;16.084;2023-01-28T12:52:43;24.13;;;16.27;;
1593;SDS011;790;47.000;16.084;2023-01-28T12:55:14;26.50;;;17.30;;
1593;SDS011;790;47.000;16.084;2023-01-28T12:57:47;24.20;;;16.10;;
1593;SDS011;790;47.000;16.084;2023-01-28T13:00:18;24.50;;;15.90;;
1593;SDS011;790;47.000;16.084;2023-01-28T13:02:54;26.43;;;17.10;;
1593;SDS011;790;47.000;16.084;2023-01-28T13:05:37;25.40;;;16.83;;
1593;SDS011;790;47.000;16.084;2023-01-28T13:08:10;22.70;;;16.30;;
1593;SDS011;790;47.000;16.084;2023-01-28T13:10:44;24.83;;;16.90;;
1593;SDS011;790;47.000;16.084;2023-01-28T13:13:16;25.43;;;17.03;;
1593;SDS011;790;47.000;16.084;2023-01-28T13:15:47;27.50;;;17.23;;
1593;SDS011;790;47.000;16.084;2023-01-28T13:21:11;25.07;;;17.27;;
1593;SDS011;790;47.000;16.084;2023-01-28T13:23:41;24.97;;;16.50;;
1593;SDS011;790;47.000;16.084;2023-01-28T13:26:30;25.47;;;16.63;;
1593;SDS011;790;47.000;16.084;2023-01-28T13:29:16;28.07;;;18.70;;
1593;SDS011;790;47.000;16.084;2023-01-28T13:31:54;24.73;;;17.17;;
1593;SDS011;790;47.000;16.084;2023-01-28T13:34:28;26.87;;;17.90;;
1593;SDS011;790;47.000;16.084;2023-01-28T13:36:58;28.93;;;17.80;;
1593;SDS011;790;47.000;16.084;2023-01-28T13:39:33;25.87;;;17.13;;
1593;SDS011;790;47.000;16.084;2023-01-28T13:42:09;25.23;;;18.10;;
1593;SDS011;790;47.000;16.084;2023-01-28T13:44:48;30.07;;;18.57;;
1593;SDS011;790;47.000;16.084;2023-01-28T13:47:20;28.93;;;18.03;;
1593;SDS011;790;47.000;16.084;2023-01-28T13:49:53;27.90;;;17.43;;
1593;SDS011;790;47.000;16.084;2023-01-28T13:52:25;28.33;;;18.43;;
1593;SDS011;790;47.000;16.084;2023-01-28T13:54:55;29.37;;;18.40;;
1593;SDS011;790;47.000;16.084;2023-01-28T14:00:46;27.10;;;18.17;;
1593;SDS011;790;47.000;16.084;2023-01-28T14:06:51;26.13;;;17.77;;
1593;SDS011;790;47.000;16.084;2023-01-28T14:09:51;24.30;;;15.30;;
1593;SDS011;790;47.000;16.084;2023-01-28T14:12:32;28.83;;;18.73;;
1593;SDS011;790;47.000;16.084;2023-01-28T14:15:38;24.83;;;17.13;;
1593;SDS011;790;47.000;16.084;2023-01-28T14:18:17;23.37;;;15.47;;
1593;SDS011;790;47.000;16.084;2023-01-28T14:20:50;24.73;;;15.83;;
1593;SDS011;790;47.000;16.084;2023-01-28T14:23:20;24.37;;;16.73;;
1593;SDS011;790;47.000;16.084;2023-01-28T14:25:52;23.87;;;16.00;;
1593;SDS011;790;47.000;16.084;2023-01-28T14:28:30;23.87;;;16.53;;
1593;SDS011;790;47.000;16.084;2023-01-28T14:31:05;24.90;;;15.50;;
1593;SDS011;790;47.000;16.084;2023-01-28T14:33:38;26.43;;;17.90;;
1593;SDS011;790;47.000;16.084;2023-01-28T14:36:08;21.93;;;15.43;;
1593;SDS011;790;47.000;16.084;2023-01-28T14:38:37;24.10;;;15.80;;
1593;SDS011;790;47.000;16.084;2023-01-28T14:41:06;24.63;;;16.33;;
1593;SDS011;790;47.000;16.084;2023-01-28T14:43:34;25.13;;;16.63;;
1593;SDS011;790;47.000;16.084;2023-01-28T14:46:13;27.03;;;16.10;;
1593;SDS011;790;47.000;16.084;2023-01-28T14:48:54;23.60;;;15.40;;
1593;SDS011;790;47.000;16.084;2023-01-28T14:51:35;23.33;;;16.63;;
1593;SDS011;790;47.000;16.084;2023-01-28T14:54:25;23.67;;;16.37;;
1593;SDS011;790;47.000;16.084;2023-01-28T14:57:20;23.97;;;15.80;;
1593;SDS011;790;47.000;16.084;2023-01-28T14:59:57;28.20;;;18.07;;
1593;SDS011;790;47.000;16.084;2023-01-28T15:02:26;25.80;;;15.70;;
1593;SDS011;790;47.000;16.084;2023-01-28T15:05:05;23.73;;;15.23;;
1593;SDS011;790;47.000;16.084;2023-01-28T15:07:34;24.67;;;16.37;;
1593;SDS011;790;47.000;16.084;2023-01-28T15:10:02;24.83;;;16.67;;
1593;SDS011;790;47.000;16.084;2023-01-28T15:12:33;26.57;;;17.47;;
1593;SDS011;790;47.000;16.084;2023-01-28T15:15:09;25.80;;;17.17;;
1593;SDS011;790;47.000;16.084;2023-01-28T15:17:37;24.20;;;17.53;;
1593;SDS011;790;47.000;16.084;2023-01-28T15:20:07;22.90;;;16.10;;
1593;SDS011;790;47.000;16.084;2023-01-28T15:22:35;23.93;;;16.37;;
1593;SDS011;790;47.000;16.084;2023-01-28T15:25:05;28.33;;;18.47;;
1593;SDS011;790;47.000;16.084;2023-01-28T15:27:32;24.87;;;17.17;;
1593;SDS011;790;47.000;16.084;2023-01-28T15:30:01;27.87;;;16.80;;
1593;SDS011;790;47.000;16.084;2023-01-28T15:32:29;27.60;;;18.40;;
1593;SDS011;790;47.000;16.084;2023-01-28T15:34:57;25.93;;;17.40;;
1593;SDS011;790;47.000;16.084;2023-01-28T15:37:28;26.37;;;18.57;;